Time;durP1;ratioP1;P1;durP2;ratioP2;P2;SDS_P1;SDS_P2;PMS_P1;PMS_P2;Temp;Humidity;BMP_temperature;BMP_pressure;BME280_temperature;BME280_humidity;BME280_pressure;Samples;Min_cycle;Max_cycle;Signal;HPM_P1;HPM_P2
2022/04/20 00:01:09;;;;;;;2.13;0.30;;;23.90;99.90;;;;;;5073480;28;20198;-70
2022/04/20 00:03:38;;;;;;;0.20;0.20;;;23.60;99.90;;;;;;5073603;28;20172;-70
2022/04/20 00:06:06;;;;;;;1.27;0.30;;;23.30;99.90;;;;;;5073298;28;20186;-71
2022/04/20 00:08:33;;;;;;;0.20;0.20;;;23.10;99.90;;;;;;5073177;28;20641;-71
2022/04/20 00:11:01;;;;;;;2.63;0.30;;;23.10;99.90;;;;;;5073410;28;20234;-72
2022/04/20 00:13:29;;;;;;;2.33;0.37;;;23.70;99.90;;;;;;5073529;28;20279;-71
2022/04/20 00:15:56;;;;;;;0.50;0.30;;;23.60;99.90;;;;;;5073119;28;20226;-71
2022/04/20 00:18:23;;;;;;;0.30;0.20;;;23.60;99.90;;;;;;5073132;28;20203;-71
2022/04/20 00:20:51;;;;;;;0.33;0.23;;;23.50;99.90;;;;;;5073144;28;20211;-70
2022/04/20 00:23:18;;;;;;;0.30;0.20;;;23.50;99.90;;;;;;5073342;28;20179;-70
2022/04/20 00:25:45;;;;;;;0.80;0.40;;;23.40;99.90;;;;;;5073027;28;20196;-70
2022/04/20 00:28:13;;;;;;;0.20;0.20;;;23.70;99.90;;;;;;5073140;28;20202;-70
2022/04/20 00:30:40;;;;;;;0.27;0.20;;;23.90;99.90;;;;;;5072895;28;20168;-70
2022/04/20 00:33:07;;;;;;;0.73;0.40;;;24.40;99.90;;;;;;5072969;28;20521;-68
2022/04/20 00:35:37;;;;;;;1.27;0.30;;;24.50;99.90;;;;;;5073231;28;20168;-70
2022/04/20 00:38:04;;;;;;;1.37;0.30;;;24.40;99.90;;;;;;5072941;28;20220;-70
2022/04/20 00:40:31;;;;;;;1.50;0.20;;;24.60;99.90;;;;;;5072930;28;20199;-70
2022/04/20 00:43:00;;;;;;;0.33;0.20;;;24.70;99.90;;;;;;5072873;28;20171;-69
2022/04/20 00:45:29;;;;;;;0.20;0.20;;;24.30;99.90;;;;;;5072815;28;20275;-69
2022/04/20 00:47:58;;;;;;;0.10;0.10;;;24.40;99.90;;;;;;5072911;28;20229;-70
2022/04/20 00:50:26;;;;;;;0.60;0.20;;;24.60;99.90;;;;;;5072746;28;20225;-70
2022/04/20 00:52:53;;;;;;;0.10;0.10;;;24.40;99.90;;;;;;5072789;28;20182;-70
2022/04/20 00:55:20;;;;;;;0.40;0.20;;;25.00;99.90;;;;;;5072765;28;20685;-70
2022/04/20 00:57:48;;;;;;;0.40;0.20;;;25.20;99.90;;;;;;5072575;28;20621;-70
2022/04/20 01:00:15;;;;;;;2.63;0.30;;;24.90;99.90;;;;;;5072662;28;20168;-71
2022/04/20 01:02:42;;;;;;;2.00;0.40;;;24.90;99.90;;;;;;5071248;28;20179;-70
2022/04/20 01:05:10;;;;;;;0.20;0.20;;;24.40;99.90;;;;;;5072775;28;20251;-71
2022/04/20 01:07:38;;;;;;;0.13;0.10;;;24.10;99.90;;;;;;5075639;28;20172;-70
2022/04/20 01:10:06;;;;;;;0.20;0.20;;;24.60;99.90;;;;;;5076648;28;20180;-71
2022/04/20 01:12:34;;;;;;;0.43;0.30;;;24.80;99.90;;;;;;5076562;28;20226;-71
2022/04/20 01:15:01;;;;;;;0.20;0.20;;;25.20;99.90;;;;;;5076596;28;20179;-71
2022/04/20 01:17:28;;;;;;;0.10;0.10;;;25.20;99.90;;;;;;5076444;28;20227;-71
2022/04/20 01:19:56;;;;;;;0.20;0.20;;;24.90;99.90;;;;;;5076425;28;20179;-69
2022/04/20 01:22:24;;;;;;;0.30;0.20;;;25.00;99.90;;;;;;5076578;28;20176;-71
2022/04/20 01:24:51;;;;;;;1.17;0.63;;;25.00;99.90;;;;;;5076967;28;20172;-70
2022/04/20 01:27:18;;;;;;;1.00;0.30;;;25.20;99.90;;;;;;5076845;28;20172;-71
2022/04/20 01:29:48;;;;;;;0.97;0.50;;;25.40;99.90;;;;;;5076343;28;20621;-70
2022/04/20 01:32:15;;;;;;;0.10;0.10;;;25.40;99.90;;;;;;5076179;28;20229;-70
2022/04/20 01:34:42;;;;;;;0.43;0.20;;;25.80;99.90;;;;;;5076473;28;20262;-71
2022/04/20 01:37:10;;;;;;;1.80;0.20;;;25.50;99.90;;;;;;5076038;28;20204;-70
2022/04/20 01:39:37;;;;;;;0.20;0.20;;;26.00;99.90;;;;;;5076076;28;20699;-70
2022/04/20 01:42:07;;;;;;;2.00;0.20;;;26.00;99.90;;;;;;5076034;28;20226;-71
2022/04/20 01:44:34;;;;;;;3.97;0.63;;;25.60;99.90;;;;;;5076144;28;20176;-70
2022/04/20 01:47:01;;;;;;;0.10;0.10;;;26.00;99.90;;;;;;5074649;28;20191;-71
2022/04/20 01:49:29;;;;;;;0.70;0.20;;;25.80;99.90;;;;;;5075765;28;20179;-70
2022/04/20 01:51:56;;;;;;;1.90;0.20;;;25.70;99.90;;;;;;5076238;28;20203;-71
2022/04/20 01:54:23;;;;;;;1.20;0.20;;;26.20;99.90;;;;;;5075857;28;20513;-71
2022/04/20 01:56:52;;;;;;;1.20;0.20;;;25.90;99.90;;;;;;5075859;28;20168;-70
2022/04/20 01:59:19;;;;;;;0.10;0.10;;;26.40;99.90;;;;;;5074617;28;20192;-71
2022/04/20 02:04:32;;;;;;;0.13;0.10;;;26.90;99.90;;;;;;5075992;28;20271;-70
2022/04/20 02:07:02;;;;;;;0.27;0.10;;;26.60;99.90;;;;;;5075723;28;20649;-71
2022/04/20 02:09:29;;;;;;;0.83;0.10;;;27.40;99.90;;;;;;5075555;28;20180;-71
2022/04/20 02:11:57;;;;;;;0.33;0.10;;;28.00;99.90;;;;;;5075647;28;20641;-72
2022/04/20 02:14:24;;;;;;;0.13;0.10;;;27.60;99.90;;;;;;5075770;28;20209;-71
2022/04/20 02:16:52;;;;;;;0.27;0.10;;;27.30;99.90;;;;;;5075274;28;20231;-69
2022/04/20 02:19:22;;;;;;;0.20;0.10;;;27.30;99.90;;;;;;5074483;28;20640;-68
2022/04/20 02:21:50;;;;;;;1.60;0.10;;;27.50;99.90;;;;;;5075660;28;20530;-71
2022/04/20 02:24:17;;;;;;;0.10;0.10;;;27.10;99.90;;;;;;5075527;28;20164;-70
2022/04/20 02:26:45;;;;;;;0.20;0.20;;;27.30;99.90;;;;;;5075631;28;20297;-71
2022/04/20 02:29:12;;;;;;;0.30;0.20;;;26.80;99.90;;;;;;5075031;28;20164;-72
2022/04/20 02:31:39;;;;;;;1.30;0.10;;;26.10;99.90;;;;;;5075475;28;20183;-69
2022/04/20 02:34:06;;;;;;;0.20;0.20;;;25.30;99.90;;;;;;5075019;28;20255;-68
2022/04/20 02:36:34;;;;;;;1.60;0.10;;;25.70;99.90;;;;;;5073221;28;20215;-68
2022/04/20 02:39:04;;;;;;;1.63;0.10;;;26.10;99.90;;;;;;5074257;28;20239;-69
2022/04/20 02:41:37;;;;;;;0.63;0.20;;;26.40;99.90;;;;;;5073306;28;20180;-68
2022/04/20 02:44:05;;;;;;;1.40;0.30;;;26.30;99.90;;;;;;5073513;28;20187;-69
2022/04/20 02:46:34;;;;;;;0.10;0.10;;;26.50;99.90;;;;;;5074929;28;20590;-69
2022/04/20 02:49:02;;;;;;;0.20;0.20;;;26.40;99.90;;;;;;5074443;28;20541;-70
2022/04/20 02:51:29;;;;;;;0.20;0.10;;;26.90;99.90;;;;;;5074968;28;20227;-69
2022/04/20 02:53:56;;;;;;;0.27;0.20;;;27.80;99.90;;;;;;5074474;28;20207;-70
2022/04/20 02:56:24;;;;;;;0.20;0.20;;;27.30;99.90;;;;;;5074699;28;20187;-70
2022/04/20 02:58:51;;;;;;;0.33;0.20;;;27.10;99.90;;;;;;5074581;28;20219;-70
2022/04/20 03:01:18;;;;;;;1.07;0.30;;;27.20;99.90;;;;;;5074248;28;20608;-68
2022/04/20 03:03:45;;;;;;;1.17;0.30;;;26.90;99.90;;;;;;5073393;28;20271;-69
2022/04/20 03:06:14;;;;;;;3.93;0.20;;;26.60;99.90;;;;;;5074000;28;20629;-68
2022/04/20 03:08:41;;;;;;;0.20;0.20;;;26.90;99.90;;;;;;5069280;28;20188;-70
2022/04/20 03:11:11;;;;;;;0.43;0.20;;;26.60;99.90;;;;;;5071673;28;20176;-69
2022/04/20 03:13:39;;;;;;;0.10;0.10;;;26.90;99.90;;;;;;5072475;28;20180;-70
2022/04/20 03:16:06;;;;;;;0.10;0.10;;;26.80;99.90;;;;;;5074698;28;20693;-70
2022/04/20 03:18:34;;;;;;;0.73;0.20;;;26.50;99.90;;;;;;5055139;28;20217;-70
2022/04/20 03:21:04;;;;;;;0.33;0.20;;;26.60;99.90;;;;;;5054879;28;20312;-69
2022/04/20 03:23:32;;;;;;;0.67;0.20;;;26.60;99.90;;;;;;5054954;28;20560;-71
2022/04/20 03:26:00;;;;;;;0.10;0.10;;;26.80;99.90;;;;;;5054189;28;20187;-71
2022/04/20 03:28:27;;;;;;;0.20;0.20;;;26.40;99.90;;;;;;5054957;28;20181;-70
2022/04/20 03:30:54;;;;;;;0.10;0.10;;;26.60;99.90;;;;;;5054379;28;20176;-71
2022/04/20 03:33:22;;;;;;;0.57;0.13;;;26.90;99.90;;;;;;5054803;28;20218;-71
2022/04/20 03:35:50;;;;;;;0.20;0.20;;;27.00;99.90;;;;;;5054334;28;20541;-70
2022/04/20 03:38:18;;;;;;;0.50;0.27;;;27.00;99.90;;;;;;5055742;28;20623;-69
2022/04/20 03:40:46;;;;;;;0.20;0.20;;;26.70;99.90;;;;;;5056089;28;20650;-69
2022/04/20 03:43:14;;;;;;;0.40;0.20;;;26.50;99.90;;;;;;5055853;28;20223;-69
2022/04/20 03:45:41;;;;;;;0.13;0.13;;;26.40;99.90;;;;;;5070897;28;20172;-69
2022/04/20 03:48:09;;;;;;;0.57;0.20;;;27.20;99.90;;;;;;5072516;28;20180;-69
2022/04/20 03:50:36;;;;;;;1.80;0.20;;;27.60;99.90;;;;;;5069610;28;20179;-68
2022/04/20 03:53:04;;;;;;;0.40;0.27;;;26.90;99.90;;;;;;5070918;28;20180;-68
2022/04/20 03:55:31;;;;;;;0.10;0.10;;;26.70;99.90;;;;;;5071612;28;20175;-68
2022/04/20 03:57:58;;;;;;;0.20;0.20;;;26.60;99.90;;;;;;5072143;28;20246;-69
2022/04/20 04:00:26;;;;;;;0.10;0.10;;;26.70;99.90;;;;;;5072160;28;20180;-69
2022/04/20 04:02:54;;;;;;;0.20;0.10;;;26.80;99.90;;;;;;5072211;28;20521;-68
2022/04/20 04:05:23;;;;;;;0.10;0.10;;;26.70;99.90;;;;;;5072368;28;20191;-69
2022/04/20 04:07:50;;;;;;;1.13;0.20;;;27.10;99.90;;;;;;5072361;28;20216;-67
2022/04/20 04:10:18;;;;;;;0.13;0.13;;;26.80;99.90;;;;;;5072441;28;20180;-68
2022/04/20 04:12:45;;;;;;;0.10;0.10;;;26.90;99.90;;;;;;5071072;28;20180;-68
2022/04/20 04:15:13;;;;;;;0.40;0.30;;;26.50;99.90;;;;;;5072131;28;20182;-70
2022/04/20 04:17:40;;;;;;;0.20;0.20;;;26.90;99.90;;;;;;5071960;28;20228;-68
2022/04/20 04:20:08;;;;;;;0.47;0.13;;;26.30;99.90;;;;;;5071869;28;20188;-68
2022/04/20 04:22:38;;;;;;;2.03;0.30;;;26.90;99.90;;;;;;5070512;28;20250;-69
2022/04/20 04:25:06;;;;;;;2.33;0.20;;;27.20;99.90;;;;;;5071336;28;20184;-68
2022/04/20 04:27:34;;;;;;;2.10;0.23;;;26.90;99.90;;;;;;5071278;28;20180;-69
2022/04/20 04:30:02;;;;;;;0.20;0.20;;;26.30;99.90;;;;;;5071058;28;20171;-68
2022/04/20 04:32:30;;;;;;;0.10;0.10;;;26.70;99.90;;;;;;5071682;28;20187;-69
2022/04/20 04:35:03;;;;;;;0.50;0.17;;;26.40;99.90;;;;;;5072053;28;20200;-68
2022/04/20 04:37:30;;;;;;;0.30;0.10;;;26.70;99.90;;;;;;5071744;28;20261;-69
2022/04/20 04:39:58;;;;;;;0.23;0.23;;;26.70;99.90;;;;;;5071595;28;20188;-68
2022/04/20 04:42:26;;;;;;;0.27;0.20;;;26.00;99.90;;;;;;5071026;28;20168;-69
2022/04/20 04:48:36;;;;;;;0.17;0.17;;;25.90;99.90;;;;;;5070492;28;20196;-68
2022/04/20 04:50:33;;;;;;;0.17;0.10;;;25.80;99.90;;;;;;5060079;28;20331;-70
2022/04/20 04:53:02;;;;;;;0.20;0.20;;;26.00;99.90;;;;;;5070068;28;20244;-69
2022/04/20 04:55:29;;;;;;;0.20;0.20;;;25.90;99.90;;;;;;5071416;28;20188;-70
2022/04/20 04:57:57;;;;;;;0.30;0.20;;;25.60;99.90;;;;;;5071564;28;20212;-69
2022/04/20 05:00:25;;;;;;;0.30;0.17;;;25.60;99.90;;;;;;5070485;28;20270;-70
2022/04/20 05:02:53;;;;;;;1.07;0.30;;;25.80;99.90;;;;;;5071586;28;20184;-70
2022/04/20 05:05:21;;;;;;;0.20;0.20;;;26.00;99.90;;;;;;5070702;28;20184;-69
2022/04/20 05:07:54;;;;;;;0.20;0.20;;;26.00;99.90;;;;;;5070847;28;20184;-69
2022/04/20 05:10:24;;;;;;;0.50;0.30;;;25.90;99.90;;;;;;5070670;28;20179;-69
2022/04/20 05:12:52;;;;;;;0.10;0.10;;;25.60;99.90;;;;;;5071421;28;20187;-69
2022/04/20 05:15:19;;;;;;;1.17;0.30;;;25.70;99.90;;;;;;5071043;28;20696;-69
2022/04/20 05:17:47;;;;;;;0.30;0.30;;;25.90;99.90;;;;;;5071454;28;20337;-69
2022/04/20 05:20:14;;;;;;;0.23;0.23;;;26.10;99.90;;;;;;5070727;28;20172;-70
2022/04/20 05:22:42;;;;;;;0.20;0.20;;;25.80;99.90;;;;;;5069829;28;20279;-69
2022/04/20 05:25:10;;;;;;;1.17;0.30;;;25.70;99.90;;;;;;5071387;28;20199;-68
2022/04/20 05:27:37;;;;;;;0.50;0.30;;;25.30;99.90;;;;;;5071295;28;20188;-69
2022/04/20 05:30:05;;;;;;;0.20;0.20;;;25.20;99.90;;;;;;5070125;28;20183;-68
2022/04/20 05:32:33;;;;;;;0.20;0.20;;;25.40;99.90;;;;;;5070990;28;20191;-70
2022/04/20 05:35:01;;;;;;;0.23;0.20;;;25.20;99.90;;;;;;5071028;28;20274;-69
2022/04/20 05:42:59;;;;;;;0.50;0.30;;;24.80;99.20;;;;;;5070625;28;20190;-70
2022/04/20 05:45:27;;;;;;;2.10;0.20;;;24.80;99.90;;;;;;5071522;28;20233;-70
2022/04/20 05:47:55;;;;;;;0.30;0.30;;;24.90;99.90;;;;;;5070588;28;20184;-69
2022/04/20 05:50:23;;;;;;;1.33;0.37;;;24.90;99.90;;;;;;5069755;28;20184;-69
2022/04/20 05:52:50;;;;;;;0.20;0.20;;;24.80;99.90;;;;;;5071821;28;20278;-69
2022/04/20 05:55:18;;;;;;;0.33;0.30;;;24.80;99.60;;;;;;5074156;28;20321;-69
2022/04/20 05:57:48;;;;;;;2.13;0.20;;;24.80;99.90;;;;;;5074556;28;20547;-68
2022/04/20 06:00:16;;;;;;;1.03;0.40;;;24.80;99.90;;;;;;5073696;28;20211;-69
2022/04/20 06:02:44;;;;;;;0.23;0.20;;;24.90;99.90;;;;;;5074439;28;20177;-69
2022/04/20 06:05:11;;;;;;;3.80;0.30;;;25.20;99.90;;;;;;5074451;28;20266;-70
2022/04/20 06:07:39;;;;;;;0.80;0.40;;;25.20;99.90;;;;;;5074355;28;20249;-69
2022/04/20 06:10:07;;;;;;;1.73;0.20;;;24.80;99.90;;;;;;5073439;28;20184;-70
2022/04/20 06:12:35;;;;;;;0.53;0.23;;;24.50;99.90;;;;;;5074575;28;20337;-69
2022/04/20 06:15:02;;;;;;;0.20;0.20;;;24.40;99.90;;;;;;5074405;28;20199;-69
2022/04/20 06:17:35;;;;;;;1.70;0.23;;;24.10;99.90;;;;;;5074105;28;20235;-69
2022/04/20 06:20:03;;;;;;;0.30;0.30;;;24.10;99.90;;;;;;5074414;28;20511;-70
2022/04/20 06:22:32;;;;;;;0.50;0.23;;;24.10;99.90;;;;;;5073805;28;20552;-69
2022/04/20 06:25:00;;;;;;;0.77;0.20;;;24.00;99.90;;;;;;5074234;28;20285;-70
2022/04/20 06:27:31;;;;;;;0.27;0.27;;;23.90;99.90;;;;;;5074234;28;20275;-68
2022/04/20 06:29:59;;;;;;;0.30;0.30;;;23.80;99.90;;;;;;5073852;28;20187;-69
2022/04/20 06:32:28;;;;;;;0.93;0.50;;;23.80;99.90;;;;;;5072401;28;20274;-70
2022/04/20 06:34:56;;;;;;;0.83;0.50;;;23.80;99.90;;;;;;5073499;28;20858;-69
2022/04/20 06:37:26;;;;;;;0.20;0.20;;;23.90;99.90;;;;;;5073832;28;20294;-69
2022/04/20 06:39:57;;;;;;;0.50;0.40;;;23.90;99.90;;;;;;5072553;28;20687;-69
2022/04/20 06:42:26;;;;;;;0.63;0.30;;;24.00;99.90;;;;;;5073940;28;20263;-70
2022/04/20 06:44:54;;;;;;;0.40;0.30;;;24.20;99.90;;;;;;5073595;28;20175;-68
2022/04/20 06:47:21;;;;;;;0.93;0.60;;;24.50;99.90;;;;;;5073768;28;20184;-69
2022/04/20 06:49:49;;;;;;;0.60;0.60;;;24.50;99.90;;;;;;5073511;28;20183;-70
2022/04/20 06:58:50;;;;;;;0.80;0.60;;;23.70;99.90;;;;;;5054147;28;20273;-69
2022/04/20 07:00:45;;;;;;;0.60;0.47;;;23.30;99.90;;;;;;5052749;28;20715;-69
2022/04/20 07:03:13;;;;;;;1.23;0.67;;;23.20;99.90;;;;;;5053323;28;20560;-68
2022/04/20 07:05:40;;;;;;;1.03;0.77;;;23.00;99.90;;;;;;5052729;28;20321;-68
2022/04/20 07:08:08;;;;;;;0.53;0.40;;;22.90;99.90;;;;;;5053196;28;20791;-69
2022/04/20 07:10:36;;;;;;;4.63;0.80;;;22.80;99.90;;;;;;5053414;28;20180;-69
2022/04/20 07:13:04;;;;;;;0.43;0.43;;;22.70;99.90;;;;;;5053410;28;20176;-69
2022/04/20 07:15:31;;;;;;;2.73;0.90;;;22.60;99.90;;;;;;5053124;28;20177;-70
2022/04/20 07:17:59;;;;;;;1.00;0.80;;;22.50;99.90;;;;;;5053337;28;20212;-69
2022/04/20 07:20:27;;;;;;;1.17;0.70;;;22.40;99.90;;;;;;5053237;28;20179;-69
2022/04/20 07:22:54;;;;;;;2.60;0.67;;;22.20;99.90;;;;;;5053285;28;20249;-69
2022/04/20 07:25:23;;;;;;;3.20;0.70;;;22.10;99.90;;;;;;5071526;28;20555;-69
2022/04/20 07:27:50;;;;;;;1.67;0.73;;;21.90;99.90;;;;;;5071497;28;20191;-70
2022/04/20 07:30:18;;;;;;;1.10;0.80;;;21.70;99.90;;;;;;5072735;28;20184;-68
2022/04/20 07:32:47;;;;;;;2.27;0.60;;;21.70;99.90;;;;;;5072719;28;20223;-69
2022/04/20 07:35:16;;;;;;;2.10;0.70;;;21.80;99.90;;;;;;5073098;28;20255;-70
2022/04/20 07:37:43;;;;;;;0.80;0.70;;;21.70;99.90;;;;;;5072162;28;20219;-70
2022/04/20 07:40:15;;;;;;;1.27;1.00;;;21.50;99.90;;;;;;5072256;28;20269;-70
2022/04/20 07:42:43;;;;;;;1.30;0.90;;;21.40;99.90;;;;;;5072396;28;20183;-68
2022/04/20 07:45:11;;;;;;;1.17;0.73;;;21.30;99.90;;;;;;5072178;28;20188;-69
2022/04/20 07:47:39;;;;;;;1.40;0.83;;;21.20;99.90;;;;;;5072565;28;20565;-68
2022/04/20 07:50:20;;;;;;;3.93;1.13;;;21.20;99.90;;;;;;5072447;28;20325;-70
2022/04/20 07:53:03;;;;;;;1.57;0.93;;;21.10;99.90;;;;;;5054496;28;20271;-68
2022/04/20 07:55:34;;;;;;;1.23;1.00;;;20.90;99.90;;;;;;5072701;28;20180;-71
2022/04/20 07:58:03;;;;;;;6.73;1.43;;;20.80;99.90;;;;;;5072481;28;20279;-69
2022/04/20 08:00:31;;;;;;;1.47;1.20;;;20.70;99.90;;;;;;5072461;28;20189;-68
2022/04/20 08:03:16;;;;;;;1.40;0.90;;;20.60;99.90;;;;;;5072004;28;20183;-67
2022/04/20 08:05:49;;;;;;;3.00;1.40;;;20.40;99.90;;;;;;5071589;28;20176;-69
2022/04/20 08:08:17;;;;;;;1.63;0.80;;;20.30;99.90;;;;;;5072442;28;20182;-69
2022/04/20 08:10:45;;;;;;;2.00;0.80;;;20.10;99.90;;;;;;5071576;28;20193;-69
2022/04/20 08:15:59;;;;;;;0.90;0.80;;;19.90;99.90;;;;;;5071879;28;20221;-68
2022/04/20 08:18:27;;;;;;;1.57;0.90;;;19.70;99.90;;;;;;5071849;28;20222;-69
2022/04/20 08:20:55;;;;;;;3.00;1.00;;;19.60;99.90;;;;;;5071740;28;20183;-70
2022/04/20 08:23:26;;;;;;;1.70;0.80;;;19.50;99.90;;;;;;5070444;28;20273;-70
2022/04/20 08:25:54;;;;;;;2.33;1.00;;;19.40;99.90;;;;;;5056265;28;20266;-69
2022/04/20 08:28:22;;;;;;;2.73;1.00;;;19.30;99.90;;;;;;5066763;28;20184;-68
2022/04/20 08:30:50;;;;;;;7.47;1.07;;;19.20;99.90;;;;;;5071352;28;20181;-67
2022/04/20 08:33:18;;;;;;;2.77;0.80;;;19.10;99.90;;;;;;5071722;28;20644;-69
2022/04/20 08:35:46;;;;;;;3.97;1.10;;;18.90;99.90;;;;;;5072066;28;20635;-69
2022/04/20 08:38:13;;;;;;;2.13;1.17;;;18.70;99.90;;;;;;5072088;28;20210;-69
2022/04/20 08:40:42;;;;;;;2.40;1.30;;;18.60;99.90;;;;;;5071830;28;20233;-68
2022/04/20 08:43:12;;;;;;;2.33;1.27;;;18.40;99.90;;;;;;5071563;28;20297;-70
2022/04/20 08:45:41;;;;;;;2.13;1.07;;;18.30;99.90;;;;;;5069721;28;20197;-70
2022/04/20 08:48:09;;;;;;;5.03;1.10;;;18.20;99.90;;;;;;5071143;28;20273;-68
2022/04/20 08:50:39;;;;;;;1.33;1.07;;;18.20;99.90;;;;;;5071390;28;20172;-68
2022/04/20 08:53:08;;;;;;;2.33;1.07;;;18.20;99.90;;;;;;5071954;28;20522;-67
2022/04/20 08:55:35;;;;;;;1.90;1.40;;;18.00;99.90;;;;;;5071910;28;20208;-68
2022/04/20 08:58:04;;;;;;;2.47;1.47;;;17.90;99.90;;;;;;5071974;28;20208;-68
2022/04/20 09:00:32;;;;;;;2.43;1.47;;;17.80;99.90;;;;;;5071307;28;20229;-67
2022/04/20 09:03:03;;;;;;;2.37;1.63;;;17.70;99.90;;;;;;5071644;28;20182;-68
2022/04/20 09:05:34;;;;;;;4.20;1.90;;;17.60;99.90;;;;;;5071343;28;20203;-69
2022/04/20 09:08:12;;;;;;;3.20;2.10;;;17.50;99.90;;;;;;5071362;28;20625;-69
2022/04/20 09:10:40;;;;;;;6.07;2.13;;;17.30;99.90;;;;;;5071853;28;20196;-68
2022/04/20 09:13:11;;;;;;;3.20;2.30;;;17.20;99.90;;;;;;5071828;28;20582;-69
2022/04/20 09:15:40;;;;;;;6.07;3.00;;;17.20;99.90;;;;;;5070816;28;20184;-68
2022/04/20 09:18:10;;;;;;;4.03;2.43;;;17.20;99.90;;;;;;5071687;28;20212;-68
2022/04/20 09:20:40;;;;;;;7.97;2.50;;;17.30;99.90;;;;;;5071479;28;20184;-69
2022/04/20 09:23:10;;;;;;;5.77;2.20;;;17.30;99.90;;;;;;5064484;28;20238;-69
2022/04/20 09:25:40;;;;;;;3.80;2.20;;;17.20;99.90;;;;;;5071002;28;20188;-69
2022/04/20 09:28:09;;;;;;;6.47;2.60;;;17.10;99.90;;;;;;5073712;28;20176;-69
2022/04/20 09:30:39;;;;;;;4.47;1.67;;;17.00;99.90;;;;;;5075498;28;20630;-69
2022/04/20 09:33:07;;;;;;;4.27;2.40;;;16.90;99.90;;;;;;5075026;28;20634;-69
2022/04/20 09:35:50;;;;;;;3.00;1.97;;;16.80;99.90;;;;;;5075014;28;20237;-69
2022/04/20 09:38:23;;;;;;;3.83;2.30;;;16.70;99.90;;;;;;5075176;28;20208;-69
2022/04/20 09:40:52;;;;;;;3.57;1.93;;;16.60;99.90;;;;;;5074569;28;20176;-69
2022/04/20 09:43:22;;;;;;;2.57;1.73;;;16.50;99.90;;;;;;5075112;28;20653;-69
2022/04/20 09:46:04;;;;;;;4.33;2.17;;;16.50;99.90;;;;;;5073937;28;20273;-70
2022/04/20 09:48:50;;;;;;;11.93;7.40;;;16.40;99.90;;;;;;5074606;28;20259;-69
2022/04/20 09:51:20;;;;;;;7.30;4.83;;;16.40;99.90;;;;;;5074955;28;20172;-70
2022/04/20 09:53:53;;;;;;;8.60;4.57;;;16.30;99.90;;;;;;5074890;28;20191;-68
2022/04/20 09:56:27;;;;;;;8.37;4.77;;;16.30;99.90;;;;;;5075068;28;20222;-69
2022/04/20 09:59:05;;;;;;;5.67;2.27;;;16.30;99.90;;;;;;5074678;28;20219;-69
2022/04/20 10:01:35;;;;;;;3.77;2.23;;;16.50;99.90;;;;;;5074822;28;20539;-69
2022/04/20 10:04:05;;;;;;;4.10;1.57;;;16.60;99.90;;;;;;5074851;28;20176;-69
2022/04/20 10:06:35;;;;;;;5.33;1.73;;;16.70;99.90;;;;;;5074743;28;20538;-69
2022/04/20 10:09:03;;;;;;;3.27;1.40;;;16.80;99.90;;;;;;5074575;28;20179;-68
2022/04/20 10:11:33;;;;;;;2.57;1.40;;;16.90;99.90;;;;;;5074624;28;20267;-70
2022/04/20 10:16:55;;;;;;;4.53;1.80;;;16.80;99.90;;;;;;5074609;28;20230;-70
2022/04/20 10:19:31;;;;;;;3.07;2.10;;;16.60;99.90;;;;;;5074398;28;20322;-71
2022/04/20 10:22:01;;;;;;;3.73;1.60;;;16.40;99.90;;;;;;5074026;28;20188;-69
2022/04/20 10:24:33;;;;;;;2.60;1.67;;;16.30;99.90;;;;;;5074286;28;20191;-68
2022/04/20 10:27:13;;;;;;;1.90;1.37;;;16.60;99.90;;;;;;5074111;28;20188;-68
2022/04/20 10:30:11;;;;;;;2.33;1.07;;;16.90;99.90;;;;;;5072071;28;21466;-69
2022/04/20 10:33:03;;;;;;;3.40;1.40;;;17.10;99.90;;;;;;5071928;28;20668;-69
2022/04/20 10:35:32;;;;;;;2.60;0.80;;;17.20;99.90;;;;;;5074298;28;20199;-69
2022/04/20 10:38:14;;;;;;;2.57;0.80;;;17.30;99.90;;;;;;5073364;28;20226;-70
2022/04/20 10:41:16;;;;;;;1.90;0.87;;;17.20;99.90;;;;;;5073633;28;20176;-69
2022/04/20 10:43:45;;;;;;;1.23;0.73;;;17.30;99.90;;;;;;5065989;28;20218;-69
2022/04/20 10:46:22;;;;;;;1.73;0.67;;;17.40;99.90;;;;;;5073655;28;20713;-69
2022/04/20 10:49:07;;;;;;;2.33;0.90;;;17.50;99.90;;;;;;5071615;28;20803;-69
2022/04/20 10:51:40;;;;;;;2.70;0.90;;;17.50;99.90;;;;;;5072754;28;20626;-69
2022/04/20 10:54:23;;;;;;;1.17;0.87;;;17.50;99.90;;;;;;5073962;28;20172;-69
2022/04/20 10:57:11;;;;;;;1.77;0.90;;;17.40;99.90;;;;;;5073934;28;20184;-69
2022/04/20 10:59:40;;;;;;;1.73;0.63;;;17.40;99.90;;;;;;5073352;28;20188;-67
2022/04/20 11:02:10;;;;;;;1.30;0.70;;;17.30;99.90;;;;;;5073261;28;20263;-68
2022/04/20 11:04:48;;;;;;;2.17;0.77;;;17.30;99.90;;;;;;5072479;28;20605;-68
2022/04/20 11:07:26;;;;;;;4.77;1.23;;;17.40;99.90;;;;;;5081899;28;20184;-68
2022/04/20 11:10:05;;;;;;;1.17;0.73;;;17.40;99.90;;;;;;5071681;28;20595;-68
2022/04/20 11:21:10;;;;;;;5.13;0.83;;;17.10;99.90;;;;;;5074450;28;20246;-68
2022/04/20 11:24:06;;;;;;;3.00;0.80;;;17.10;99.90;;;;;;5072680;28;20279;-69
2022/04/20 11:26:40;;;;;;;0.73;0.60;;;17.00;99.90;;;;;;5072464;28;20565;-66
2022/04/20 11:29:14;;;;;;;1.77;0.70;;;17.00;99.90;;;;;;5074216;28;20206;-67
2022/04/20 11:31:50;;;;;;;1.43;0.80;;;17.00;99.90;;;;;;5074551;28;20175;-68
2022/04/20 11:34:22;;;;;;;1.20;0.90;;;17.00;99.90;;;;;;5074486;28;20171;-67
2022/04/20 11:36:53;;;;;;;3.17;0.87;;;16.80;99.90;;;;;;5074327;28;20188;-69
2022/04/20 11:39:23;;;;;;;2.63;0.70;;;16.70;99.90;;;;;;5073865;28;20212;-67
2022/04/20 11:41:53;;;;;;;1.00;0.70;;;16.40;99.90;;;;;;5074055;28;20175;-69
2022/04/20 11:44:25;;;;;;;2.30;1.00;;;16.30;99.90;;;;;;5074416;28;20550;-68
2022/04/20 11:46:57;;;;;;;1.13;0.80;;;16.20;99.90;;;;;;5074174;28;20531;-69
2022/04/20 11:49:44;;;;;;;3.03;0.87;;;16.10;99.90;;;;;;5073930;28;20218;-71
2022/04/20 11:52:17;;;;;;;1.30;0.70;;;15.90;99.90;;;;;;5074127;28;20183;-68
2022/04/20 11:54:47;;;;;;;0.87;0.80;;;15.90;99.90;;;;;;5074166;28;20179;-69
2022/04/20 11:57:16;;;;;;;5.47;1.20;;;15.90;99.90;;;;;;5073736;28;20599;-68
2022/04/20 11:59:44;;;;;;;1.73;0.83;;;16.00;99.90;;;;;;5073747;28;20183;-68
2022/04/20 12:02:13;;;;;;;3.57;1.40;;;16.00;99.90;;;;;;5074009;28;20172;-69
2022/04/20 12:04:43;;;;;;;6.53;4.43;;;15.90;99.90;;;;;;5073796;28;20191;-69
2022/04/20 12:07:11;;;;;;;2.20;1.30;;;15.90;99.90;;;;;;5073818;28;20172;-68
2022/04/20 12:09:40;;;;;;;2.10;1.00;;;16.00;99.90;;;;;;5073488;28;20176;-68
2022/04/20 12:12:10;;;;;;;2.83;0.80;;;16.10;99.90;;;;;;5073802;28;20657;-67
2022/04/20 12:14:39;;;;;;;0.80;0.70;;;16.10;99.90;;;;;;5073576;28;20179;-68
2022/04/20 12:17:11;;;;;;;1.23;0.73;;;16.20;99.90;;;;;;5073273;28;20719;-69
2022/04/20 12:19:41;;;;;;;1.67;0.80;;;16.30;99.90;;;;;;5073793;28;20224;-68
2022/04/20 12:22:15;;;;;;;1.37;0.60;;;16.30;99.90;;;;;;5073620;28;20172;-69
2022/04/20 12:24:43;;;;;;;0.80;0.80;;;16.30;99.90;;;;;;5072574;28;20533;-68
2022/04/20 12:27:20;;;;;;;4.30;1.00;;;16.30;99.90;;;;;;5073558;28;20258;-67
2022/04/20 12:29:56;;;;;;;0.73;0.60;;;16.20;99.90;;;;;;5073654;28;20251;-68
2022/04/20 12:32:36;;;;;;;4.13;1.00;;;16.10;99.90;;;;;;5073417;28;20179;-68
2022/04/20 12:35:05;;;;;;;0.90;0.70;;;16.00;99.90;;;;;;5073483;28;20262;-68
2022/04/20 12:37:39;;;;;;;1.63;0.80;;;15.90;99.90;;;;;;5073220;28;20208;-69
2022/04/20 12:40:25;;;;;;;1.57;0.53;;;15.90;99.90;;;;;;5072159;28;20269;-68
2022/04/20 12:43:07;;;;;;;2.03;0.53;;;15.80;99.90;;;;;;5073455;28;20187;-68
2022/04/20 12:45:36;;;;;;;1.53;0.67;;;15.60;99.90;;;;;;5073479;28;20172;-67
2022/04/20 12:48:05;;;;;;;1.27;0.80;;;15.50;99.90;;;;;;5073253;28;20184;-68
2022/04/20 12:50:42;;;;;;;2.17;0.70;;;15.40;99.90;;;;;;5073202;28;20178;-68
2022/04/20 12:53:11;;;;;;;2.63;0.80;;;15.20;99.90;;;;;;5073487;28;20187;-68
2022/04/20 13:04:15;;;;;;;1.20;0.67;;;14.50;99.90;;;;;;5077776;28;20543;-68
2022/04/20 13:06:43;;;;;;;1.43;0.80;;;14.40;99.90;;;;;;5077068;28;20179;-68
2022/04/20 13:09:11;;;;;;;2.90;0.80;;;14.30;99.90;;;;;;5077038;28;20179;-68
2022/04/20 13:11:39;;;;;;;3.53;0.97;;;14.30;99.90;;;;;;5075947;28;20271;-68
2022/04/20 13:14:08;;;;;;;2.50;0.80;;;14.40;99.90;;;;;;5077170;28;20167;-67
2022/04/20 13:16:36;;;;;;;2.00;0.90;;;14.50;99.90;;;;;;5076874;28;20234;-68
2022/04/20 13:19:04;;;;;;;2.30;0.87;;;14.50;99.90;;;;;;5076114;28;20214;-69
2022/04/20 13:21:32;;;;;;;1.43;0.70;;;14.40;99.90;;;;;;5072277;28;20179;-68
2022/04/20 13:24:00;;;;;;;1.83;0.80;;;14.40;99.90;;;;;;5075849;28;20183;-67
2022/04/20 13:29:14;;;;;;;5.63;0.97;;;14.20;99.90;;;;;;5075521;28;20233;-66
2022/04/20 13:31:43;;;;;;;1.90;0.70;;;14.10;99.90;;;;;;5075304;28;20258;-67
2022/04/20 13:34:10;;;;;;;0.97;0.67;;;14.00;99.90;;;;;;5076156;28;20188;-66
2022/04/20 13:36:38;;;;;;;1.97;0.60;;;14.10;99.90;;;;;;5076214;28;20191;-66
2022/04/20 13:39:06;;;;;;;1.33;0.93;;;14.00;99.90;;;;;;5075550;28;20687;-67
2022/04/20 13:41:33;;;;;;;4.63;0.63;;;14.10;99.90;;;;;;5075044;28;20624;-66
2022/04/20 13:44:01;;;;;;;1.43;0.57;;;14.10;99.90;;;;;;5075817;28;20249;-67